sensor_id;sensor_type;location;lat;lon;timestamp;P1;durP1;ratioP1;P2;durP2;ratioP2
53287;SDS011;39172;45.550;12.072;2022-09-14T00:00:17;1.80;;;0.90;;
53287;SDS011;39172;45.550;12.072;2022-09-14T00:06:18;1.17;;;0.90;;
53287;SDS011;39172;45.550;12.072;2022-09-14T00:12:19;0.85;;;0.63;;
53287;SDS011;39172;45.550;12.072;2022-09-14T00:18:20;0.70;;;0.60;;
53287;SDS011;39172;45.550;12.072;2022-09-14T00:24:21;0.77;;;0.68;;
53287;SDS011;39172;45.550;12.072;2022-09-14T00:30:23;1.75;;;0.85;;
53287;SDS011;39172;45.550;12.072;2022-09-14T00:36:25;1.23;;;0.85;;
53287;SDS011;39172;45.550;12.072;2022-09-14T00:42:26;1.95;;;1.10;;
53287;SDS011;39172;45.550;12.072;2022-09-14T00:48:27;1.00;;;0.80;;
53287;SDS011;39172;45.550;12.072;2022-09-14T00:54:29;1.08;;;0.80;;
53287;SDS011;39172;45.550;12.072;2022-09-14T01:00:30;1.40;;;1.00;;
53287;SDS011;39172;45.550;12.072;2022-09-14T01:19:03;1.00;;;0.60;;
53287;SDS011;39172;45.550;12.072;2022-09-14T01:31:41;0.93;;;0.80;;
53287;SDS011;39172;45.550;12.072;2022-09-14T01:37:50;1.60;;;1.20;;
53287;SDS011;39172;45.550;12.072;2022-09-14T01:43:53;0.93;;;0.70;;
53287;SDS011;39172;45.550;12.072;2022-09-14T01:49:56;1.02;;;0.70;;
53287;SDS011;39172;45.550;12.072;2022-09-14T02:08:04;1.20;;;1.10;;
53287;SDS011;39172;45.550;12.072;2022-09-14T02:14:05;1.83;;;1.23;;
53287;SDS011;39172;45.550;12.072;2022-09-14T02:20:06;2.40;;;1.50;;
53287;SDS011;39172;45.550;12.072;2022-09-14T02:26:08;1.63;;;1.35;;
53287;SDS011;39172;45.550;12.072;2022-09-14T02:50:19;1.50;;;1.00;;
53287;SDS011;39172;45.550;12.072;2022-09-14T02:56:20;1.80;;;1.10;;
53287;SDS011;39172;45.550;12.072;2022-09-14T03:02:22;1.90;;;1.00;;
53287;SDS011;39172;45.550;12.072;2022-09-14T03:08:23;1.13;;;1.00;;
53287;SDS011;39172;45.550;12.072;2022-09-14T03:14:25;1.30;;;1.10;;
53287;SDS011;39172;45.550;12.072;2022-09-14T03:20:27;1.35;;;1.02;;
53287;SDS011;39172;45.550;12.072;2022-09-14T03:26:29;2.97;;;1.13;;
53287;SDS011;39172;45.550;12.072;2022-09-14T03:32:30;1.77;;;1.20;;
53287;SDS011;39172;45.550;12.072;2022-09-14T03:38:31;1.83;;;1.48;;
53287;SDS011;39172;45.550;12.072;2022-09-14T03:44:32;2.63;;;1.58;;
53287;SDS011;39172;45.550;12.072;2022-09-14T03:50:33;2.83;;;1.75;;
53287;SDS011;39172;45.550;12.072;2022-09-14T03:56:34;2.08;;;1.20;;
53287;SDS011;39172;45.550;12.072;2022-09-14T04:02:35;1.48;;;0.85;;
53287;SDS011;39172;45.550;12.072;2022-09-14T04:08:37;0.98;;;0.88;;
53287;SDS011;39172;45.550;12.072;2022-09-14T04:14:38;1.33;;;0.75;;
53287;SDS011;39172;45.550;12.072;2022-09-14T04:20:39;1.83;;;1.10;;
53287;SDS011;39172;45.550;12.072;2022-09-14T04:26:40;2.17;;;1.52;;
53287;SDS011;39172;45.550;12.072;2022-09-14T04:32:41;2.45;;;1.60;;
53287;SDS011;39172;45.550;12.072;2022-09-14T04:38:44;2.50;;;1.55;;
53287;SDS011;39172;45.550;12.072;2022-09-14T04:44:45;2.05;;;1.27;;
53287;SDS011;39172;45.550;12.072;2022-09-14T04:50:46;1.60;;;0.90;;
53287;SDS011;39172;45.550;12.072;2022-09-14T04:56:47;1.50;;;1.10;;
53287;SDS011;39172;45.550;12.072;2022-09-14T05:02:48;1.00;;;0.90;;
53287;SDS011;39172;45.550;12.072;2022-09-14T05:08:49;1.80;;;1.20;;
53287;SDS011;39172;45.550;12.072;2022-09-14T05:14:50;2.17;;;1.58;;
53287;SDS011;39172;45.550;12.072;2022-09-14T05:20:51;1.88;;;1.63;;
53287;SDS011;39172;45.550;12.072;2022-09-14T05:26:52;1.33;;;1.10;;
53287;SDS011;39172;45.550;12.072;2022-09-14T05:32:53;2.65;;;1.77;;
53287;SDS011;39172;45.550;12.072;2022-09-14T05:38:54;2.78;;;1.60;;
53287;SDS011;39172;45.550;12.072;2022-09-14T05:44:57;3.25;;;1.90;;
53287;SDS011;39172;45.550;12.072;2022-09-14T05:50:58;2.47;;;1.63;;
53287;SDS011;39172;45.550;12.072;2022-09-14T05:56:59;2.05;;;1.30;;
53287;SDS011;39172;45.550;12.072;2022-09-14T06:03:00;3.58;;;1.83;;
53287;SDS011;39172;45.550;12.072;2022-09-14T06:09:02;1.90;;;1.50;;
53287;SDS011;39172;45.550;12.072;2022-09-14T06:15:03;3.38;;;2.35;;
53287;SDS011;39172;45.550;12.072;2022-09-14T06:21:04;3.17;;;2.22;;
53287;SDS011;39172;45.550;12.072;2022-09-14T06:27:05;4.55;;;2.40;;
53287;SDS011;39172;45.550;12.072;2022-09-14T06:33:08;3.53;;;2.50;;
53287;SDS011;39172;45.550;12.072;2022-09-14T06:39:09;2.85;;;2.15;;
53287;SDS011;39172;45.550;12.072;2022-09-14T06:45:10;2.63;;;1.60;;
53287;SDS011;39172;45.550;12.072;2022-09-14T06:51:15;2.63;;;2.17;;
53287;SDS011;39172;45.550;12.072;2022-09-14T06:57:17;3.92;;;2.20;;
53287;SDS011;39172;45.550;12.072;2022-09-14T07:03:18;2.10;;;1.50;;
53287;SDS011;39172;45.550;12.072;2022-09-14T07:09:19;2.20;;;1.70;;
53287;SDS011;39172;45.550;12.072;2022-09-14T07:15:20;3.83;;;2.33;;
53287;SDS011;39172;45.550;12.072;2022-09-14T07:21:21;2.42;;;1.92;;
53287;SDS011;39172;45.550;12.072;2022-09-14T07:27:22;2.60;;;2.20;;
53287;SDS011;39172;45.550;12.072;2022-09-14T07:33:23;2.20;;;1.40;;
53287;SDS011;39172;45.550;12.072;2022-09-14T07:39:24;4.57;;;3.22;;
53287;SDS011;39172;45.550;12.072;2022-09-14T07:45:25;3.42;;;2.45;;
53287;SDS011;39172;45.550;12.072;2022-09-14T07:51:27;1.73;;;1.42;;
53287;SDS011;39172;45.550;12.072;2022-09-14T07:57:28;1.83;;;1.70;;
53287;SDS011;39172;45.550;12.072;2022-09-14T08:03:29;1.60;;;1.20;;
53287;SDS011;39172;45.550;12.072;2022-09-14T08:09:31;1.70;;;1.52;;
53287;SDS011;39172;45.550;12.072;2022-09-14T08:15:32;0.90;;;0.70;;
53287;SDS011;39172;45.550;12.072;2022-09-14T08:21:33;1.40;;;0.90;;
53287;SDS011;39172;45.550;12.072;2022-09-14T08:27:35;1.65;;;1.10;;
53287;SDS011;39172;45.550;12.072;2022-09-14T08:33:37;0.70;;;0.60;;
53287;SDS011;39172;45.550;12.072;2022-09-14T08:39:38;1.02;;;0.60;;
53287;SDS011;39172;45.550;12.072;2022-09-14T08:45:41;1.50;;;1.10;;
53287;SDS011;39172;45.550;12.072;2022-09-14T08:51:43;2.33;;;0.98;;
53287;SDS011;39172;45.550;12.072;2022-09-14T08:57:46;1.17;;;0.60;;
53287;SDS011;39172;45.550;12.072;2022-09-14T09:09:51;0.88;;;0.50;;
53287;SDS011;39172;45.550;12.072;2022-09-14T09:15:54;1.00;;;0.70;;
53287;SDS011;39172;45.550;12.072;2022-09-14T09:21:56;1.58;;;1.00;;
53287;SDS011;39172;45.550;12.072;2022-09-14T09:28:00;0.82;;;0.80;;
53287;SDS011;39172;45.550;12.072;2022-09-14T09:34:01;1.38;;;0.90;;
53287;SDS011;39172;45.550;12.072;2022-09-14T09:40:12;1.05;;;0.80;;
53287;SDS011;39172;45.550;12.072;2022-09-14T09:46:13;2.25;;;1.10;;
53287;SDS011;39172;45.550;12.072;2022-09-14T09:52:14;1.58;;;0.90;;
53287;SDS011;39172;45.550;12.072;2022-09-14T09:58:25;1.48;;;0.90;;
53287;SDS011;39172;45.550;12.072;2022-09-14T10:04:27;2.50;;;1.20;;
53287;SDS011;39172;45.550;12.072;2022-09-14T10:16:37;1.27;;;1.00;;
53287;SDS011;39172;45.550;12.072;2022-09-14T10:22:39;1.80;;;1.38;;
53287;SDS011;39172;45.550;12.072;2022-09-14T10:28:42;2.67;;;1.45;;
53287;SDS011;39172;45.550;12.072;2022-09-14T10:34:43;1.50;;;1.40;;
53287;SDS011;39172;45.550;12.072;2022-09-14T10:40:45;2.03;;;1.50;;
53287;SDS011;39172;45.550;12.072;2022-09-14T11:35:41;2.25;;;1.52;;
53287;SDS011;39172;45.550;12.072;2022-09-14T11:41:52;2.47;;;1.27;;
53287;SDS011;39172;45.550;12.072;2022-09-14T11:48:00;3.25;;;1.70;;
53287;SDS011;39172;45.550;12.072;2022-09-14T11:54:01;4.28;;;1.80;;
53287;SDS011;39172;45.550;12.072;2022-09-14T12:00:05;3.08;;;1.50;;
53287;SDS011;39172;45.550;12.072;2022-09-14T12:18:29;2.00;;;1.60;;
53287;SDS011;39172;45.550;12.072;2022-09-14T12:24:30;2.88;;;1.48;;
53287;SDS011;39172;45.550;12.072;2022-09-14T12:42:42;4.13;;;1.80;;
53287;SDS011;39172;45.550;12.072;2022-09-14T12:54:53;2.38;;;1.70;;
53287;SDS011;39172;45.550;12.072;2022-09-14T13:01:30;2.88;;;1.80;;
53287;SDS011;39172;45.550;12.072;2022-09-14T13:07:25;1.73;;;1.50;;
53287;SDS011;39172;45.550;12.072;2022-09-14T13:13:29;3.58;;;2.03;;
53287;SDS011;39172;45.550;12.072;2022-09-14T13:19:32;2.40;;;1.80;;
53287;SDS011;39172;45.550;12.072;2022-09-14T13:25:34;3.50;;;1.90;;
53287;SDS011;39172;45.550;12.072;2022-09-14T13:31:36;2.70;;;1.83;;
53287;SDS011;39172;45.550;12.072;2022-09-14T13:37:58;2.47;;;1.70;;
53287;SDS011;39172;45.550;12.072;2022-09-14T13:43:59;2.80;;;1.80;;
53287;SDS011;39172;45.550;12.072;2022-09-14T13:50:00;2.38;;;1.75;;
53287;SDS011;39172;45.550;12.072;2022-09-14T13:56:19;3.45;;;1.70;;
53287;SDS011;39172;45.550;12.072;2022-09-14T14:02:20;2.53;;;1.60;;
53287;SDS011;39172;45.550;12.072;2022-09-14T14:14:23;3.15;;;1.80;;
53287;SDS011;39172;45.550;12.072;2022-09-14T14:20:28;2.60;;;1.40;;
53287;SDS011;39172;45.550;12.072;2022-09-14T14:26:32;2.63;;;1.50;;
53287;SDS011;39172;45.550;12.072;2022-09-14T14:32:33;1.98;;;1.10;;
53287;SDS011;39172;45.550;12.072;2022-09-14T14:38:34;2.97;;;1.40;;
53287;SDS011;39172;45.550;12.072;2022-09-14T14:44:35;1.55;;;1.30;;
53287;SDS011;39172;45.550;12.072;2022-09-14T14:50:37;2.30;;;1.33;;
53287;SDS011;39172;45.550;12.072;2022-09-14T14:56:38;2.85;;;1.23;;
53287;SDS011;39172;45.550;12.072;2022-09-14T15:02:39;2.38;;;1.30;;
53287;SDS011;39172;45.550;12.072;2022-09-14T15:08:40;1.67;;;1.30;;
53287;SDS011;39172;45.550;12.072;2022-09-14T15:14:41;3.95;;;1.40;;
53287;SDS011;39172;45.550;12.072;2022-09-14T15:20:42;1.92;;;1.40;;
53287;SDS011;39172;45.550;12.072;2022-09-14T15:26:43;1.80;;;1.58;;
53287;SDS011;39172;45.550;12.072;2022-09-14T15:32:44;2.28;;;1.70;;
53287;SDS011;39172;45.550;12.072;2022-09-14T15:38:44;2.60;;;1.70;;
53287;SDS011;39172;45.550;12.072;2022-09-14T15:44:46;2.42;;;1.77;;
53287;SDS011;39172;45.550;12.072;2022-09-14T15:50:47;2.22;;;1.42;;
53287;SDS011;39172;45.550;12.072;2022-09-14T15:56:49;1.77;;;1.35;;
53287;SDS011;39172;45.550;12.072;2022-09-14T16:02:50;1.90;;;1.42;;
53287;SDS011;39172;45.550;12.072;2022-09-14T16:08:51;2.15;;;1.27;;
53287;SDS011;39172;45.550;12.072;2022-09-14T16:14:52;1.45;;;0.93;;
53287;SDS011;39172;45.550;12.072;2022-09-14T16:20:54;2.35;;;1.33;;
53287;SDS011;39172;45.550;12.072;2022-09-14T16:26:55;1.08;;;0.95;;
53287;SDS011;39172;45.550;12.072;2022-09-14T16:32:57;1.13;;;0.98;;
53287;SDS011;39172;45.550;12.072;2022-09-14T16:38:59;1.65;;;1.08;;
53287;SDS011;39172;45.550;12.072;2022-09-14T16:45:01;0.60;;;0.60;;
53287;SDS011;39172;45.550;12.072;2022-09-14T16:51:02;1.60;;;1.10;;
53287;SDS011;39172;45.550;12.072;2022-09-14T16:57:03;1.13;;;1.02;;
53287;SDS011;39172;45.550;12.072;2022-09-14T17:03:04;1.65;;;1.15;;
53287;SDS011;39172;45.550;12.072;2022-09-14T17:09:07;3.22;;;1.48;;
53287;SDS011;39172;45.550;12.072;2022-09-14T17:15:08;2.38;;;1.17;;
53287;SDS011;39172;45.550;12.072;2022-09-14T17:21:20;1.52;;;1.13;;
53287;SDS011;39172;45.550;12.072;2022-09-14T17:27:21;1.00;;;0.90;;
53287;SDS011;39172;45.550;12.072;2022-09-14T17:33:22;1.70;;;1.30;;
53287;SDS011;39172;45.550;12.072;2022-09-14T17:39:23;1.10;;;0.90;;
53287;SDS011;39172;45.550;12.072;2022-09-14T17:45:24;2.10;;;1.20;;
53287;SDS011;39172;45.550;12.072;2022-09-14T17:51:26;1.95;;;1.23;;
53287;SDS011;39172;45.550;12.072;2022-09-14T17:57:28;0.95;;;0.80;;
53287;SDS011;39172;45.550;12.072;2022-09-14T18:03:29;1.42;;;0.80;;
53287;SDS011;39172;45.550;12.072;2022-09-14T18:09:30;0.77;;;0.65;;
53287;SDS011;39172;45.550;12.072;2022-09-14T18:15:31;1.20;;;0.80;;
53287;SDS011;39172;45.550;12.072;2022-09-14T18:21:31;1.38;;;1.00;;
53287;SDS011;39172;45.550;12.072;2022-09-14T18:27:33;1.75;;;1.35;;
53287;SDS011;39172;45.550;12.072;2022-09-14T18:33:34;1.10;;;0.80;;
53287;SDS011;39172;45.550;12.072;2022-09-14T18:39:35;0.90;;;0.70;;
53287;SDS011;39172;45.550;12.072;2022-09-14T18:45:36;1.15;;;0.82;;
53287;SDS011;39172;45.550;12.072;2022-09-14T18:51:37;1.30;;;1.10;;
53287;SDS011;39172;45.550;12.072;2022-09-14T18:57:38;1.27;;;1.17;;
53287;SDS011;39172;45.550;12.072;2022-09-14T19:03:40;2.28;;;1.60;;
53287;SDS011;39172;45.550;12.072;2022-09-14T19:09:41;2.42;;;1.30;;
53287;SDS011;39172;45.550;12.072;2022-09-14T19:15:42;0.95;;;0.65;;
53287;SDS011;39172;45.550;12.072;2022-09-14T19:21:43;1.10;;;0.80;;
53287;SDS011;39172;45.550;12.072;2022-09-14T19:27:44;1.20;;;0.90;;
53287;SDS011;39172;45.550;12.072;2022-09-14T19:33:45;1.55;;;1.33;;
53287;SDS011;39172;45.550;12.072;2022-09-14T19:39:48;2.47;;;1.38;;
53287;SDS011;39172;45.550;12.072;2022-09-14T19:45:49;2.65;;;1.63;;
53287;SDS011;39172;45.550;12.072;2022-09-14T19:51:50;2.60;;;1.90;;
53287;SDS011;39172;45.550;12.072;2022-09-14T19:57:51;1.85;;;1.60;;
53287;SDS011;39172;45.550;12.072;2022-09-14T20:03:52;2.70;;;1.60;;
53287;SDS011;39172;45.550;12.072;2022-09-14T20:09:53;1.30;;;1.20;;
53287;SDS011;39172;45.550;12.072;2022-09-14T20:15:54;2.28;;;1.80;;
53287;SDS011;39172;45.550;12.072;2022-09-14T20:21:55;2.28;;;1.70;;
53287;SDS011;39172;45.550;12.072;2022-09-14T20:27:56;2.40;;;1.70;;
53287;SDS011;39172;45.550;12.072;2022-09-14T20:33:57;2.35;;;1.65;;
53287;SDS011;39172;45.550;12.072;2022-09-14T20:39:59;2.47;;;1.65;;
53287;SDS011;39172;45.550;12.072;2022-09-14T20:46:00;1.65;;;1.20;;
53287;SDS011;39172;45.550;12.072;2022-09-14T20:52:01;2.60;;;2.00;;
53287;SDS011;39172;45.550;12.072;2022-09-14T20:58:02;1.27;;;1.08;;
53287;SDS011;39172;45.550;12.072;2022-09-14T21:04:05;1.13;;;0.90;;
53287;SDS011;39172;45.550;12.072;2022-09-14T21:10:06;1.63;;;1.10;;
53287;SDS011;39172;45.550;12.072;2022-09-14T21:22:15;2.45;;;1.67;;
53287;SDS011;39172;45.550;12.072;2022-09-14T21:28:16;2.40;;;1.60;;
53287;SDS011;39172;45.550;12.072;2022-09-14T21:34:17;3.17;;;1.90;;
53287;SDS011;39172;45.550;12.072;2022-09-14T21:40:18;2.22;;;2.03;;
53287;SDS011;39172;45.550;12.072;2022-09-14T21:46:20;2.60;;;1.95;;
53287;SDS011;39172;45.550;12.072;2022-09-14T21:52:21;2.78;;;1.98;;
53287;SDS011;39172;45.550;12.072;2022-09-14T21:58:22;3.15;;;2.10;;
53287;SDS011;39172;45.550;12.072;2022-09-14T22:04:23;2.25;;;1.80;;
53287;SDS011;39172;45.550;12.072;2022-09-14T22:10:24;3.10;;;1.90;;
53287;SDS011;39172;45.550;12.072;2022-09-14T22:16:26;2.20;;;2.00;;
53287;SDS011;39172;45.550;12.072;2022-09-14T22:22:28;2.45;;;1.80;;
53287;SDS011;39172;45.550;12.072;2022-09-14T22:28:29;3.97;;;2.38;;
53287;SDS011;39172;45.550;12.072;2022-09-14T22:34:30;2.53;;;2.33;;
53287;SDS011;39172;45.550;12.072;2022-09-14T22:40:32;3.40;;;2.30;;
53287;SDS011;39172;45.550;12.072;2022-09-14T22:46:33;3.65;;;2.53;;
53287;SDS011;39172;45.550;12.072;2022-09-14T22:52:34;2.78;;;2.33;;
53287;SDS011;39172;45.550;12.072;2022-09-14T22:58:36;3.38;;;2.10;;
53287;SDS011;39172;45.550;12.072;2022-09-14T23:04:37;2.65;;;2.10;;
53287;SDS011;39172;45.550;12.072;2022-09-14T23:10:39;3.20;;;2.10;;
53287;SDS011;39172;45.550;12.072;2022-09-14T23:16:40;3.58;;;1.83;;
53287;SDS011;39172;45.550;12.072;2022-09-14T23:22:41;2.47;;;1.90;;
53287;SDS011;39172;45.550;12.072;2022-09-14T23:28:42;2.42;;;1.70;;
53287;SDS011;39172;45.550;12.072;2022-09-14T23:34:43;2.30;;;1.77;;
53287;SDS011;39172;45.550;12.072;2022-09-14T23:40:43;2.03;;;1.48;;
53287;SDS011;39172;45.550;12.072;2022-09-14T23:46:44;1.88;;;1.50;;
53287;SDS011;39172;45.550;12.072;2022-09-14T23:52:45;2.67;;;1.45;;
53287;SDS011;39172;45.550;12.072;2022-09-14T23:58:46;2.40;;;1.58;;
